sensor_id;sensor_type;location;lat;lon;timestamp;pressure;altitude;pressure_sealevel;temperature;humidity
71974;BME280;59840;52.122;5.404;2023-02-01T00:02:12;102063.06;;;3.99;87.60
71974;BME280;59840;52.122;5.404;2023-02-01T00:04:38;102058.31;;;4.02;87.72
71974;BME280;59840;52.122;5.404;2023-02-01T00:07:05;102057.66;;;4.09;88.17
71974;BME280;59840;52.122;5.404;2023-02-01T00:09:32;102056.97;;;4.15;87.90
71974;BME280;59840;52.122;5.404;2023-02-01T00:11:59;102059.75;;;4.13;86.93
71974;BME280;59840;52.122;5.404;2023-02-01T00:14:28;102059.56;;;4.15;87.63
71974;BME280;59840;52.122;5.404;2023-02-01T00:16:55;102069.66;;;4.18;86.92
71974;BME280;59840;52.122;5.404;2023-02-01T00:19:21;102065.06;;;4.20;87.78
71974;BME280;59840;52.122;5.404;2023-02-01T00:21:48;102063.28;;;4.20;87.83
71974;BME280;59840;52.122;5.404;2023-02-01T00:24:14;102057.53;;;4.25;87.97
71974;BME280;59840;52.122;5.404;2023-02-01T00:26:43;102053.59;;;4.29;87.38
71974;BME280;59840;52.122;5.404;2023-02-01T00:29:13;102050.31;;;4.35;87.15
71974;BME280;59840;52.122;5.404;2023-02-01T00:31:42;102047.34;;;4.38;86.87
71974;BME280;59840;52.122;5.404;2023-02-01T00:34:14;102042.06;;;4.46;87.42
71974;BME280;59840;52.122;5.404;2023-02-01T00:36:42;102048.56;;;4.50;86.86
71974;BME280;59840;52.122;5.404;2023-02-01T00:39:10;102043.16;;;4.52;87.39
71974;BME280;59840;52.122;5.404;2023-02-01T00:41:37;102047.22;;;4.54;86.52
71974;BME280;59840;52.122;5.404;2023-02-01T00:44:04;102051.44;;;4.55;86.72
71974;BME280;59840;52.122;5.404;2023-02-01T00:46:30;102051.44;;;4.55;86.59
71974;BME280;59840;52.122;5.404;2023-02-01T00:48:57;102050.13;;;4.59;86.79
71974;BME280;59840;52.122;5.404;2023-02-01T00:51:27;102054.38;;;4.60;86.86
71974;BME280;59840;52.122;5.404;2023-02-01T00:53:54;102049.78;;;4.62;86.61
71974;BME280;59840;52.122;5.404;2023-02-01T00:56:21;102047.78;;;4.64;86.81
71974;BME280;59840;52.122;5.404;2023-02-01T00:58:47;102052.22;;;4.64;86.58
71974;BME280;59840;52.122;5.404;2023-02-01T01:03:45;102058.19;;;4.72;86.63
71974;BME280;59840;52.122;5.404;2023-02-01T01:06:15;102050.81;;;4.76;86.46
71974;BME280;59840;52.122;5.404;2023-02-01T01:08:43;102047.38;;;4.76;86.62
71974;BME280;59840;52.122;5.404;2023-02-01T01:11:19;102041.47;;;4.82;85.71
71974;BME280;59840;52.122;5.404;2023-02-01T01:13:48;102045.97;;;4.88;85.73
71974;BME280;59840;52.122;5.404;2023-02-01T01:16:15;102030.28;;;4.88;85.68
71974;BME280;59840;52.122;5.404;2023-02-01T01:18:42;102027.13;;;4.92;85.74
71974;BME280;59840;52.122;5.404;2023-02-01T01:21:10;102029.03;;;4.98;85.11
71974;BME280;59840;52.122;5.404;2023-02-01T01:23:38;102035.06;;;4.99;84.79
71974;BME280;59840;52.122;5.404;2023-02-01T01:26:17;102035.00;;;5.07;84.57
71974;BME280;59840;52.122;5.404;2023-02-01T01:28:45;102028.44;;;5.11;84.74
71974;BME280;59840;52.122;5.404;2023-02-01T01:31:14;102028.09;;;5.14;84.41
71974;BME280;59840;52.122;5.404;2023-02-01T01:33:41;102024.81;;;5.12;83.54
71974;BME280;59840;52.122;5.404;2023-02-01T01:36:10;102025.91;;;5.18;83.53
71974;BME280;59840;52.122;5.404;2023-02-01T01:38:40;102025.75;;;5.19;83.70
71974;BME280;59840;52.122;5.404;2023-02-01T01:41:08;102030.75;;;5.21;83.52
71974;BME280;59840;52.122;5.404;2023-02-01T01:44:03;102023.94;;;5.20;84.03
71974;BME280;59840;52.122;5.404;2023-02-01T01:46:32;102021.38;;;5.26;83.05
71974;BME280;59840;52.122;5.404;2023-02-01T01:52:05;102025.38;;;5.37;83.35
71974;BME280;59840;52.122;5.404;2023-02-01T01:54:34;102020.22;;;5.44;82.68
71974;BME280;59840;52.122;5.404;2023-02-01T01:57:07;102011.03;;;5.48;82.79
71974;BME280;59840;52.122;5.404;2023-02-01T01:59:37;102005.78;;;5.48;82.17
71974;BME280;59840;52.122;5.404;2023-02-01T02:02:05;102016.09;;;5.49;81.99
71974;BME280;59840;52.122;5.404;2023-02-01T02:04:33;102009.22;;;5.48;82.34
71974;BME280;59840;52.122;5.404;2023-02-01T02:07:04;102006.06;;;5.53;82.30
71974;BME280;59840;52.122;5.404;2023-02-01T02:09:31;101999.63;;;5.55;82.27
71974;BME280;59840;52.122;5.404;2023-02-01T02:11:58;102005.31;;;5.59;82.20
71974;BME280;59840;52.122;5.404;2023-02-01T02:14:26;102005.31;;;5.59;82.22
71974;BME280;59840;52.122;5.404;2023-02-01T02:16:58;101995.47;;;5.61;82.62
71974;BME280;59840;52.122;5.404;2023-02-01T02:19:52;101997.34;;;5.67;82.48
71974;BME280;59840;52.122;5.404;2023-02-01T02:33:49;101985.06;;;5.82;82.27
71974;BME280;59840;52.122;5.404;2023-02-01T02:42:25;101971.13;;;5.96;82.08
71974;BME280;59840;52.122;5.404;2023-02-01T02:45:18;101963.53;;;6.01;82.17
71974;BME280;59840;52.122;5.404;2023-02-01T02:48:14;101976.00;;;5.99;82.26
71974;BME280;59840;52.122;5.404;2023-02-01T02:50:54;101964.88;;;5.97;82.00
71974;BME280;59840;52.122;5.404;2023-02-01T02:54:13;101968.75;;;6.01;82.48
71974;BME280;59840;52.122;5.404;2023-02-01T02:57:02;101966.75;;;6.03;82.27
71974;BME280;59840;52.122;5.404;2023-02-01T02:59:50;101963.97;;;6.05;82.42
71974;BME280;59840;52.122;5.404;2023-02-01T03:02:37;101945.81;;;6.03;82.08
71974;BME280;59840;52.122;5.404;2023-02-01T03:05:22;101927.66;;;6.02;82.34
71974;BME280;59840;52.122;5.404;2023-02-01T03:16:03;101938.09;;;5.81;82.51
71974;BME280;59840;52.122;5.404;2023-02-01T03:18:51;101946.94;;;5.80;82.45
71974;BME280;59840;52.122;5.404;2023-02-01T03:21:24;101949.94;;;5.77;82.63
71974;BME280;59840;52.122;5.404;2023-02-01T03:23:53;101949.56;;;5.80;82.15
71974;BME280;59840;52.122;5.404;2023-02-01T03:26:22;101942.72;;;5.79;82.07
71974;BME280;59840;52.122;5.404;2023-02-01T03:29:00;101951.19;;;5.81;82.11
71974;BME280;59840;52.122;5.404;2023-02-01T03:31:29;101930.16;;;5.74;81.95
71974;BME280;59840;52.122;5.404;2023-02-01T03:33:55;101931.53;;;5.70;81.87
71974;BME280;59840;52.122;5.404;2023-02-01T03:36:31;101933.97;;;5.71;82.11
71974;BME280;59840;52.122;5.404;2023-02-01T03:39:15;101945.97;;;5.66;82.13
71974;BME280;59840;52.122;5.404;2023-02-01T03:41:53;101943.28;;;5.59;82.07
71974;BME280;59840;52.122;5.404;2023-02-01T03:44:25;101954.56;;;5.60;82.15
71974;BME280;59840;52.122;5.404;2023-02-01T03:46:59;101956.94;;;5.55;82.80
71974;BME280;59840;52.122;5.404;2023-02-01T03:49:32;101939.41;;;5.55;82.93
71974;BME280;59840;52.122;5.404;2023-02-01T03:52:01;101946.84;;;5.52;82.95
71974;BME280;59840;52.122;5.404;2023-02-01T03:54:30;101950.91;;;5.54;83.17
71974;BME280;59840;52.122;5.404;2023-02-01T03:57:04;101960.16;;;5.57;82.52
71974;BME280;59840;52.122;5.404;2023-02-01T03:59:31;101956.94;;;5.55;82.74
71974;BME280;59840;52.122;5.404;2023-02-01T04:01:57;101944.84;;;5.54;82.81
71974;BME280;59840;52.122;5.404;2023-02-01T04:04:24;101953.22;;;5.64;82.90
71974;BME280;59840;52.122;5.404;2023-02-01T04:06:50;101952.56;;;5.77;82.25
71974;BME280;59840;52.122;5.404;2023-02-01T04:09:17;101950.38;;;5.80;82.54
71974;BME280;59840;52.122;5.404;2023-02-01T04:11:44;101935.66;;;5.79;82.24
71974;BME280;59840;52.122;5.404;2023-02-01T04:14:10;101936.91;;;5.83;82.64
71974;BME280;59840;52.122;5.404;2023-02-01T04:16:37;101931.75;;;5.90;82.53
71974;BME280;59840;52.122;5.404;2023-02-01T04:19:04;101944.13;;;5.96;82.07
71974;BME280;59840;52.122;5.404;2023-02-01T04:21:30;101946.72;;;5.96;81.79
71974;BME280;59840;52.122;5.404;2023-02-01T04:23:57;101945.75;;;5.97;81.94
71974;BME280;59840;52.122;5.404;2023-02-01T04:26:24;101945.81;;;6.03;81.81
71974;BME280;59840;52.122;5.404;2023-02-01T04:28:50;101962.97;;;6.06;81.87
71974;BME280;59840;52.122;5.404;2023-02-01T04:31:19;101966.41;;;6.07;81.34
71974;BME280;59840;52.122;5.404;2023-02-01T04:33:53;101953.09;;;6.08;81.41
71974;BME280;59840;52.122;5.404;2023-02-01T04:36:21;101949.06;;;6.05;81.31
71974;BME280;59840;52.122;5.404;2023-02-01T04:38:51;101936.75;;;6.06;81.39
71974;BME280;59840;52.122;5.404;2023-02-01T04:41:19;101940.56;;;6.03;80.82
71974;BME280;59840;52.122;5.404;2023-02-01T04:43:46;101931.28;;;6.01;81.00
71974;BME280;59840;52.122;5.404;2023-02-01T04:46:13;101943.31;;;5.95;81.28
71974;BME280;59840;52.122;5.404;2023-02-01T04:48:41;101936.00;;;5.91;81.72
71974;BME280;59840;52.122;5.404;2023-02-01T04:51:08;101934.38;;;5.90;81.51
71974;BME280;59840;52.122;5.404;2023-02-01T04:53:36;101939.91;;;5.80;82.05
71974;BME280;59840;52.122;5.404;2023-02-01T04:56:03;101934.03;;;5.78;81.73
71974;BME280;59840;52.122;5.404;2023-02-01T04:58:29;101920.06;;;5.71;81.85
71974;BME280;59840;52.122;5.404;2023-02-01T05:00:56;101927.28;;;5.69;82.33
71974;BME280;59840;52.122;5.404;2023-02-01T05:03:22;101935.59;;;5.72;81.97
71974;BME280;59840;52.122;5.404;2023-02-01T05:05:49;101932.97;;;5.72;82.56
71974;BME280;59840;52.122;5.404;2023-02-01T05:08:16;101929.00;;;5.77;81.99
71974;BME280;59840;52.122;5.404;2023-02-01T05:10:44;101933.13;;;5.86;81.80
71974;BME280;59840;52.122;5.404;2023-02-01T05:13:11;101926.69;;;5.88;82.17
71974;BME280;59840;52.122;5.404;2023-02-01T05:15:56;101928.06;;;5.84;82.03
71974;BME280;59840;52.122;5.404;2023-02-01T05:18:22;101932.06;;;5.80;82.07
71974;BME280;59840;52.122;5.404;2023-02-01T05:20:49;101924.94;;;5.74;82.33
71974;BME280;59840;52.122;5.404;2023-02-01T05:23:15;101932.59;;;5.76;82.78
71974;BME280;59840;52.122;5.404;2023-02-01T05:25:42;101931.41;;;5.78;82.58
71974;BME280;59840;52.122;5.404;2023-02-01T05:28:09;101939.16;;;5.86;81.70
71974;BME280;59840;52.122;5.404;2023-02-01T05:30:35;101940.78;;;5.87;82.39
71974;BME280;59840;52.122;5.404;2023-02-01T05:33:03;101939.63;;;5.90;81.84
71974;BME280;59840;52.122;5.404;2023-02-01T05:35:30;101945.28;;;5.93;82.18
71974;BME280;59840;52.122;5.404;2023-02-01T05:37:56;101938.06;;;5.95;81.46
71974;BME280;59840;52.122;5.404;2023-02-01T05:40:23;101932.44;;;5.98;81.47
71974;BME280;59840;52.122;5.404;2023-02-01T05:42:50;101938.88;;;5.96;81.90
71974;BME280;59840;52.122;5.404;2023-02-01T05:45:16;101945.28;;;5.93;81.91
71974;BME280;59840;52.122;5.404;2023-02-01T05:47:43;101949.28;;;5.89;82.32
71974;BME280;59840;52.122;5.404;2023-02-01T05:50:10;101939.50;;;5.98;81.94
71974;BME280;59840;52.122;5.404;2023-02-01T05:52:36;101935.69;;;6.00;81.40
71974;BME280;59840;52.122;5.404;2023-02-01T05:55:03;101941.75;;;6.01;81.98
71974;BME280;59840;52.122;5.404;2023-02-01T05:57:30;101945.00;;;6.03;81.39
71974;BME280;59840;52.122;5.404;2023-02-01T05:59:57;101943.81;;;6.05;81.43
71974;BME280;59840;52.122;5.404;2023-02-01T06:02:25;101943.81;;;6.05;81.43
71974;BME280;59840;52.122;5.404;2023-02-01T06:04:52;101942.44;;;6.10;81.48
71974;BME280;59840;52.122;5.404;2023-02-01T06:07:18;101947.06;;;6.08;81.64
71974;BME280;59840;52.122;5.404;2023-02-01T06:09:45;101941.81;;;6.08;81.66
71974;BME280;59840;52.122;5.404;2023-02-01T06:12:11;101955.53;;;6.10;81.85
71974;BME280;59840;52.122;5.404;2023-02-01T06:14:38;101951.94;;;6.11;81.83
71974;BME280;59840;52.122;5.404;2023-02-01T06:17:05;101953.91;;;6.09;81.68
71974;BME280;59840;52.122;5.404;2023-02-01T06:19:32;101954.09;;;6.07;82.05
71974;BME280;59840;52.122;5.404;2023-02-01T06:21:59;101943.00;;;6.05;82.08
71974;BME280;59840;52.122;5.404;2023-02-01T06:24:25;101939.56;;;6.04;82.05
71974;BME280;59840;52.122;5.404;2023-02-01T06:26:52;101944.19;;;6.02;82.53
71974;BME280;59840;52.122;5.404;2023-02-01T06:29:18;101947.34;;;5.98;82.52
71974;BME280;59840;52.122;5.404;2023-02-01T06:31:45;101945.22;;;5.87;82.56
71974;BME280;59840;52.122;5.404;2023-02-01T06:34:12;101952.00;;;5.81;82.82
71974;BME280;59840;52.122;5.404;2023-02-01T06:36:38;101954.72;;;5.73;83.44
71974;BME280;59840;52.122;5.404;2023-02-01T06:39:06;101961.97;;;5.71;83.53
71974;BME280;59840;52.122;5.404;2023-02-01T06:41:32;101954.66;;;5.66;83.73
71974;BME280;59840;52.122;5.404;2023-02-01T06:44:00;101952.22;;;5.65;83.69
71974;BME280;59840;52.122;5.404;2023-02-01T06:46:27;101973.53;;;5.62;83.56
71974;BME280;59840;52.122;5.404;2023-02-01T06:48:54;101960.81;;;5.59;83.67
71974;BME280;59840;52.122;5.404;2023-02-01T06:51:23;101970.53;;;5.65;84.03
71974;BME280;59840;52.122;5.404;2023-02-01T06:53:50;101969.47;;;5.59;83.48
71974;BME280;59840;52.122;5.404;2023-02-01T06:56:17;101980.75;;;5.60;83.59
71974;BME280;59840;52.122;5.404;2023-02-01T06:58:44;101968.28;;;5.62;83.55
71974;BME280;59840;52.122;5.404;2023-02-01T07:01:11;101976.16;;;5.62;84.10
71974;BME280;59840;52.122;5.404;2023-02-01T07:03:38;101967.94;;;5.65;84.05
71974;BME280;59840;52.122;5.404;2023-02-01T07:06:06;101974.78;;;5.66;83.44
71974;BME280;59840;52.122;5.404;2023-02-01T07:08:36;101969.91;;;5.63;84.30
71974;BME280;59840;52.122;5.404;2023-02-01T07:11:07;101966.56;;;5.69;83.82
71974;BME280;59840;52.122;5.404;2023-02-01T07:13:35;101970.06;;;5.76;83.72
71974;BME280;59840;52.122;5.404;2023-02-01T07:16:04;101969.09;;;5.77;83.80
71974;BME280;59840;52.122;5.404;2023-02-01T07:18:31;101960.22;;;5.78;83.65
71974;BME280;59840;52.122;5.404;2023-02-01T07:20:58;101968.72;;;5.80;84.02
71974;BME280;59840;52.122;5.404;2023-02-01T07:23:26;101965.66;;;5.77;84.13
71974;BME280;59840;52.122;5.404;2023-02-01T07:25:58;101965.03;;;5.75;83.66
71974;BME280;59840;52.122;5.404;2023-02-01T07:28:25;101960.16;;;5.71;83.84
71974;BME280;59840;52.122;5.404;2023-02-01T07:30:52;101955.09;;;5.70;83.79
71974;BME280;59840;52.122;5.404;2023-02-01T07:33:23;101966.03;;;5.73;84.21
71974;BME280;59840;52.122;5.404;2023-02-01T07:35:53;101971.63;;;5.70;83.83
71974;BME280;59840;52.122;5.404;2023-02-01T07:38:20;101969.19;;;5.69;83.90
71974;BME280;59840;52.122;5.404;2023-02-01T07:40:48;101968.00;;;5.71;83.89
71974;BME280;59840;52.122;5.404;2023-02-01T07:43:14;101966.03;;;5.73;83.62
71974;BME280;59840;52.122;5.404;2023-02-01T07:45:41;101973.31;;;5.78;83.90
71974;BME280;59840;52.122;5.404;2023-02-01T07:48:07;101964.84;;;5.76;83.86
71974;BME280;59840;52.122;5.404;2023-02-01T07:50:34;101965.38;;;5.71;83.82
71974;BME280;59840;52.122;5.404;2023-02-01T07:53:01;101968.00;;;5.71;83.86
71974;BME280;59840;52.122;5.404;2023-02-01T07:55:28;101964.66;;;5.78;83.36
71974;BME280;59840;52.122;5.404;2023-02-01T07:57:58;101961.66;;;5.81;83.23
71974;BME280;59840;52.122;5.404;2023-02-01T08:00:25;101965.09;;;5.81;83.69
71974;BME280;59840;52.122;5.404;2023-02-01T08:03:10;101965.72;;;5.83;83.31
71974;BME280;59840;52.122;5.404;2023-02-01T08:05:37;101971.78;;;5.84;83.57
71974;BME280;59840;52.122;5.404;2023-02-01T08:08:04;101981.44;;;5.83;83.11
71974;BME280;59840;52.122;5.404;2023-02-01T08:10:31;101987.50;;;5.84;83.35
71974;BME280;59840;52.122;5.404;2023-02-01T08:12:59;101985.06;;;5.82;83.72
71974;BME280;59840;52.122;5.404;2023-02-01T08:15:27;101989.94;;;5.85;83.13
71974;BME280;59840;52.122;5.404;2023-02-01T08:17:54;101982.69;;;5.87;83.46
71974;BME280;59840;52.122;5.404;2023-02-01T08:20:22;101973.13;;;5.94;83.13
71974;BME280;59840;52.122;5.404;2023-02-01T08:22:54;101984.84;;;5.98;83.49
71974;BME280;59840;52.122;5.404;2023-02-01T08:25:22;101967.56;;;6.04;83.07
71974;BME280;59840;52.122;5.404;2023-02-01T08:27:49;101968.28;;;6.13;82.59
71974;BME280;59840;52.122;5.404;2023-02-01T08:30:15;101962.47;;;6.17;82.89
71974;BME280;59840;52.122;5.404;2023-02-01T08:32:42;101961.28;;;6.20;82.13
71974;BME280;59840;52.122;5.404;2023-02-01T08:35:09;101962.72;;;6.22;82.42
71974;BME280;59840;52.122;5.404;2023-02-01T08:37:35;101959.50;;;6.27;82.39
71974;BME280;59840;52.122;5.404;2023-02-01T08:40:03;101969.59;;;6.23;82.64
71974;BME280;59840;52.122;5.404;2023-02-01T08:42:30;101962.91;;;6.21;82.67
71974;BME280;59840;52.122;5.404;2023-02-01T08:45:25;101959.31;;;6.22;82.53
71974;BME280;59840;52.122;5.404;2023-02-01T08:47:52;101954.91;;;6.29;82.56
71974;BME280;59840;52.122;5.404;2023-02-01T08:50:20;101960.22;;;6.35;82.08
71974;BME280;59840;52.122;5.404;2023-02-01T08:52:48;101959.50;;;6.48;81.58
71974;BME280;59840;52.122;5.404;2023-02-01T08:55:15;101958.97;;;6.59;81.81
71974;BME280;59840;52.122;5.404;2023-02-01T08:57:42;101969.72;;;6.64;81.03
71974;BME280;59840;52.122;5.404;2023-02-01T09:00:12;101961.66;;;6.66;81.12
71974;BME280;59840;52.122;5.404;2023-02-01T09:02:39;101959.72;;;6.75;80.90
71974;BME280;59840;52.122;5.404;2023-02-01T09:05:06;101956.31;;;6.81;81.29
71974;BME280;59840;52.122;5.404;2023-02-01T09:07:34;101946.84;;;6.80;80.99
71974;BME280;59840;52.122;5.404;2023-02-01T09:10:00;101951.31;;;6.86;80.75
71974;BME280;59840;52.122;5.404;2023-02-01T09:12:28;101954.00;;;6.99;80.65
71974;BME280;59840;52.122;5.404;2023-02-01T09:14:56;101940.63;;;7.22;80.00
71974;BME280;59840;52.122;5.404;2023-02-01T09:17:23;101935.44;;;7.42;79.04
71974;BME280;59840;52.122;5.404;2023-02-01T09:19:49;101942.38;;;7.56;79.08
71974;BME280;59840;52.122;5.404;2023-02-01T09:22:16;101937.50;;;7.53;78.18
71974;BME280;59840;52.122;5.404;2023-02-01T09:24:43;101922.97;;;7.57;77.79
71974;BME280;59840;52.122;5.404;2023-02-01T09:27:09;101922.59;;;7.60;78.24
71974;BME280;59840;52.122;5.404;2023-02-01T09:29:37;101943.59;;;7.60;78.00
71974;BME280;59840;52.122;5.404;2023-02-01T09:32:03;101946.63;;;7.57;77.67
71974;BME280;59840;52.122;5.404;2023-02-01T09:34:31;101941.53;;;7.49;78.01
71974;BME280;59840;52.122;5.404;2023-02-01T09:36:57;101953.22;;;7.46;78.15
71974;BME280;59840;52.122;5.404;2023-02-01T09:39:24;101939.06;;;7.40;77.82
71974;BME280;59840;52.122;5.404;2023-02-01T09:47:51;101915.59;;;7.32;78.23
71974;BME280;59840;52.122;5.404;2023-02-01T09:50:22;101948.31;;;7.30;78.20
71974;BME280;59840;52.122;5.404;2023-02-01T09:53:05;101948.31;;;7.30;78.42
71974;BME280;59840;52.122;5.404;2023-02-01T09:55:59;101950.31;;;7.28;78.45
71974;BME280;59840;52.122;5.404;2023-02-01T09:58:35;101946.69;;;7.22;79.02
71974;BME280;59840;52.122;5.404;2023-02-01T10:01:03;101934.94;;;7.18;78.26
71974;BME280;59840;52.122;5.404;2023-02-01T10:03:33;101958.13;;;7.15;78.56
71974;BME280;59840;52.122;5.404;2023-02-01T10:06:23;101944.41;;;7.13;79.09
71974;BME280;59840;52.122;5.404;2023-02-01T10:09:35;101942.41;;;7.15;79.04
71974;BME280;59840;52.122;5.404;2023-02-01T10:18:01;101939.16;;;7.13;79.62
71974;BME280;59840;52.122;5.404;2023-02-01T10:26:22;101948.94;;;6.91;81.81
71974;BME280;59840;52.122;5.404;2023-02-01T10:28:54;101955.31;;;6.82;83.12
71974;BME280;59840;52.122;5.404;2023-02-01T10:31:25;101950.47;;;6.79;83.66
71974;BME280;59840;52.122;5.404;2023-02-01T10:33:58;101958.50;;;6.77;84.16
71974;BME280;59840;52.122;5.404;2023-02-01T10:36:31;101943.59;;;6.78;83.83
71974;BME280;59840;52.122;5.404;2023-02-01T10:38:59;101940.78;;;6.79;84.10
71974;BME280;59840;52.122;5.404;2023-02-01T10:41:32;101938.78;;;6.81;83.93
71974;BME280;59840;52.122;5.404;2023-02-01T10:44:00;101935.16;;;6.82;83.63
71974;BME280;59840;52.122;5.404;2023-02-01T10:46:30;101918.22;;;6.85;83.93
71974;BME280;59840;52.122;5.404;2023-02-01T10:49:00;101937.63;;;6.90;82.85
71974;BME280;59840;52.122;5.404;2023-02-01T10:54:36;101928.75;;;6.98;82.14
71974;BME280;59840;52.122;5.404;2023-02-01T10:57:10;101919.31;;;7.03;82.09
71974;BME280;59840;52.122;5.404;2023-02-01T10:59:37;101926.03;;;7.13;81.50
71974;BME280;59840;52.122;5.404;2023-02-01T11:04:46;101916.84;;;7.36;81.16
71974;BME280;59840;52.122;5.404;2023-02-01T11:07:23;101918.47;;;7.37;80.17
71974;BME280;59840;52.122;5.404;2023-02-01T11:09:52;101901.69;;;7.38;79.63
71974;BME280;59840;52.122;5.404;2023-02-01T11:12:33;101901.47;;;7.33;79.58
71974;BME280;59840;52.122;5.404;2023-02-01T11:15:22;101896.63;;;7.37;80.24
71974;BME280;59840;52.122;5.404;2023-02-01T11:17:51;101907.94;;;7.37;79.66
71974;BME280;59840;52.122;5.404;2023-02-01T11:20:24;101901.47;;;7.33;79.86
71974;BME280;59840;52.122;5.404;2023-02-01T11:23:01;101902.66;;;7.31;80.18
71974;BME280;59840;52.122;5.404;2023-02-01T11:25:30;101902.66;;;7.31;79.97
71974;BME280;59840;52.122;5.404;2023-02-01T11:27:59;101905.94;;;7.39;79.95
71974;BME280;59840;52.122;5.404;2023-02-01T11:30:38;101901.53;;;7.47;79.89
71974;BME280;59840;52.122;5.404;2023-02-01T11:33:13;101912.84;;;7.47;79.88
71974;BME280;59840;52.122;5.404;2023-02-01T11:35:42;101913.66;;;7.48;79.87
71974;BME280;59840;52.122;5.404;2023-02-01T11:38:27;101910.03;;;7.55;79.43
71974;BME280;59840;52.122;5.404;2023-02-01T11:40:54;101900.16;;;7.64;79.38
71974;BME280;59840;52.122;5.404;2023-02-01T11:43:28;101906.44;;;7.69;79.33
71974;BME280;59840;52.122;5.404;2023-02-01T11:46:00;101912.13;;;7.80;79.70
71974;BME280;59840;52.122;5.404;2023-02-01T11:48:30;101900.22;;;7.97;78.38
71974;BME280;59840;52.122;5.404;2023-02-01T11:51:13;101905.66;;;8.02;78.41
71974;BME280;59840;52.122;5.404;2023-02-01T11:59:29;101856.34;;;8.04;78.72
71974;BME280;59840;52.122;5.404;2023-02-01T12:11:26;101879.41;;;8.22;77.30
71974;BME280;59840;52.122;5.404;2023-02-01T12:14:22;101875.56;;;8.18;76.94
71974;BME280;59840;52.122;5.404;2023-02-01T12:27:26;101881.00;;;8.10;76.68
71974;BME280;59840;52.122;5.404;2023-02-01T12:30:17;101883.44;;;8.04;77.26
71974;BME280;59840;52.122;5.404;2023-02-01T12:38:46;101865.44;;;7.95;77.68
71974;BME280;59840;52.122;5.404;2023-02-01T12:43:53;101884.84;;;7.87;77.10
71974;BME280;59840;52.122;5.404;2023-02-01T12:46:43;101877.38;;;7.84;77.36
71974;BME280;59840;52.122;5.404;2023-02-01T12:49:23;101878.56;;;7.82;77.32
71974;BME280;59840;52.122;5.404;2023-02-01T12:52:01;101871.69;;;7.81;77.77
71974;BME280;59840;52.122;5.404;2023-02-01T12:54:40;101871.69;;;7.81;77.66
71974;BME280;59840;52.122;5.404;2023-02-01T12:57:26;101862.59;;;7.83;78.24
71974;BME280;59840;52.122;5.404;2023-02-01T13:02:52;101873.53;;;7.93;77.26
71974;BME280;59840;52.122;5.404;2023-02-01T13:05:24;101893.72;;;7.99;77.79
71974;BME280;59840;52.122;5.404;2023-02-01T13:08:05;101868.88;;;8.02;77.84
71974;BME280;59840;52.122;5.404;2023-02-01T13:10:38;101872.91;;;7.98;77.40
71974;BME280;59840;52.122;5.404;2023-02-01T13:15:58;101882.63;;;7.84;77.72
71974;BME280;59840;52.122;5.404;2023-02-01T13:18:34;101873.50;;;7.80;77.96
71974;BME280;59840;52.122;5.404;2023-02-01T13:21:06;101875.72;;;7.77;78.21
71974;BME280;59840;52.122;5.404;2023-02-01T13:23:37;101874.31;;;7.74;78.33
71974;BME280;59840;52.122;5.404;2023-02-01T13:26:04;101888.06;;;7.76;78.78
71974;BME280;59840;52.122;5.404;2023-02-01T13:31:41;101889.69;;;7.77;78.23
71974;BME280;59840;52.122;5.404;2023-02-01T13:34:42;101865.22;;;7.77;78.86
71974;BME280;59840;52.122;5.404;2023-02-01T13:43:02;101895.97;;;7.83;77.84
71974;BME280;59840;52.122;5.404;2023-02-01T13:45:35;101896.38;;;7.86;78.31
71974;BME280;59840;52.122;5.404;2023-02-01T13:48:05;101903.84;;;7.89;78.47
71974;BME280;59840;52.122;5.404;2023-02-01T13:50:34;101885.06;;;7.92;78.53
71974;BME280;59840;52.122;5.404;2023-02-01T13:55:46;101887.47;;;8.00;77.84
71974;BME280;59840;52.122;5.404;2023-02-01T13:58:22;101892.31;;;8.03;77.75
71974;BME280;59840;52.122;5.404;2023-02-01T14:01:33;101890.31;;;8.05;77.13
71974;BME280;59840;52.122;5.404;2023-02-01T14:04:06;101872.50;;;8.07;77.02
71974;BME280;59840;52.122;5.404;2023-02-01T14:06:53;101891.53;;;8.10;76.83
71974;BME280;59840;52.122;5.404;2023-02-01T14:09:33;101904.47;;;8.11;77.20
71974;BME280;59840;52.122;5.404;2023-02-01T14:15:26;101887.88;;;8.11;77.65
71974;BME280;59840;52.122;5.404;2023-02-01T14:17:54;101893.53;;;8.07;78.25
71974;BME280;59840;52.122;5.404;2023-02-01T14:20:40;101874.72;;;8.04;77.85
71974;BME280;59840;52.122;5.404;2023-02-01T14:23:16;101889.28;;;8.00;78.95
71974;BME280;59840;52.122;5.404;2023-02-01T14:25:44;101884.22;;;7.98;78.65
71974;BME280;59840;52.122;5.404;2023-02-01T14:28:25;101887.09;;;7.97;78.62
71974;BME280;59840;52.122;5.404;2023-02-01T14:30:54;101891.94;;;7.93;79.17
71974;BME280;59840;52.122;5.404;2023-02-01T14:33:24;101878.19;;;7.91;79.27
71974;BME280;59840;52.122;5.404;2023-02-01T14:36:13;101888.69;;;7.91;79.04
71974;BME280;59840;52.122;5.404;2023-02-01T14:38:48;101898.59;;;7.89;79.40
71974;BME280;59840;52.122;5.404;2023-02-01T14:41:34;101882.03;;;7.89;79.23
71974;BME280;59840;52.122;5.404;2023-02-01T14:49:34;101882.63;;;7.84;79.84
71974;BME280;59840;52.122;5.404;2023-02-01T14:52:06;101885.84;;;7.86;79.63
71974;BME280;59840;52.122;5.404;2023-02-01T14:54:37;101866.03;;;7.84;79.77
71974;BME280;59840;52.122;5.404;2023-02-01T14:57:13;101876.94;;;7.81;80.35
71974;BME280;59840;52.122;5.404;2023-02-01T14:59:42;101879.97;;;7.71;81.54
71974;BME280;59840;52.122;5.404;2023-02-01T15:02:21;101887.44;;;7.67;82.08
71974;BME280;59840;52.122;5.404;2023-02-01T15:04:54;101896.72;;;7.63;82.11
71974;BME280;59840;52.122;5.404;2023-02-01T15:07:24;101893.06;;;7.64;81.71
71974;BME280;59840;52.122;5.404;2023-02-01T15:09:53;101899.94;;;7.65;82.30
71974;BME280;59840;52.122;5.404;2023-02-01T15:12:26;101904.38;;;7.65;81.61
71974;BME280;59840;52.122;5.404;2023-02-01T15:15:09;101907.03;;;7.65;81.71
71974;BME280;59840;52.122;5.404;2023-02-01T15:17:36;101885.00;;;7.66;82.42